Time;durP1;ratioP1;P1;durP2;ratioP2;P2;SDS_P1;SDS_P2;PMS_P1;PMS_P2;Temp;Humidity;BMP_temperature;BMP_pressure;BME280_temperature;BME280_humidity;BME280_pressure;Samples;Min_cycle;Max_cycle;Signal;HPM_P1;HPM_P2
2023/08/13 01:38:06;;;;;;;;;;;;;;;16.06;100.00;101505.00;5585333;23;19933;-80
2023/08/13 01:40:51;;;;;;;;;;;;;;;16.05;100.00;101502.41;5005187;28;20482;-81
2023/08/13 01:43:37;;;;;;;;;;;;;;;16.05;100.00;101502.41;5004290;28;19928;-80
2023/08/13 01:46:22;;;;;;;;;;;;;;;16.05;100.00;101503.28;5021570;28;19947;-79
2023/08/13 01:49:11;;;;;;;;;;;;;;;16.07;100.00;101505.88;5005607;28;19925;-79
2023/08/13 01:51:57;;;;;;;;;;;;;;;16.06;100.00;101509.50;5006628;28;19920;-80
2023/08/13 01:54:42;;;;;;;;;;;;;;;16.06;100.00;101506.81;5022035;28;20299;-79
2023/08/13 01:57:28;;;;;;;;;;;;;;;16.05;100.00;101505.94;5023366;28;19993;-80
2023/08/13 02:00:13;;;;;;;;;;;;;;;16.04;100.00;101509.56;5020580;28;20414;-80
2023/08/13 02:02:59;;;;;;;;;;;;;;;16.03;100.00;101510.53;4995064;28;19925;-80
2023/08/13 02:05:45;;;;;;;;;;;;;;;16.02;100.00;101506.13;4988481;28;19979;-79
2023/08/13 02:08:31;;;;;;;;;;;;;;;16.00;100.00;101494.66;5000070;28;19979;-79
2023/08/13 02:11:17;;;;;;;;;;;;;;;16.00;100.00;101506.22;5001829;28;19944;-79
2023/08/13 02:14:03;;;;;;;;;;;;;;;15.99;100.00;101511.63;5001221;28;19932;-79
2023/08/13 02:16:48;;;;;;;;;;;;;;;15.97;100.00;101505.53;4987938;28;19925;-79
2023/08/13 02:19:34;;;;;;;;;;;;;;;15.95;100.00;101502.09;5004456;28;19968;-79
2023/08/13 02:22:19;;;;;;;;;;;;;;;15.94;100.00;101511.03;5002673;28;19933;-79
2023/08/13 02:25:05;;;;;;;;;;;;;;;15.93;100.00;101509.31;4997200;28;19925;-80
2023/08/13 02:27:57;;;;;;;;;;;;;;;15.91;100.00;101508.53;4997638;28;19922;-79
2023/08/13 02:30:43;;;;;;;;;;;;;;;15.88;100.00;101502.41;5002381;28;19957;-80
2023/08/13 02:33:28;;;;;;;;;;;;;;;15.87;100.00;101503.34;4999528;28;19929;-79
2023/08/13 02:36:14;;;;;;;;;;;;;;;15.86;100.00;101509.63;5000300;28;20376;-80
2023/08/13 02:38:59;;;;;;;;;;;;;;;15.85;100.00;101497.25;5002263;28;20068;-80
2023/08/13 02:41:45;;;;;;;;;;;;;;;15.83;100.00;101500.94;4986070;28;20007;-80
2023/08/13 02:44:31;;;;;;;;;;;;;;;15.83;100.00;101504.50;5000243;28;19975;-79
2023/08/13 02:47:19;;;;;;;;;;;;;;;15.82;100.00;101497.44;4983386;28;19929;-79
2023/08/13 02:50:06;;;;;;;;;;;;;;;15.82;100.00;101499.22;5001915;28;19979;-80
2023/08/13 02:52:52;;;;;;;;;;;;;;;15.80;100.00;101499.31;4999385;28;19978;-80
2023/08/13 02:55:38;;;;;;;;;;;;;;;15.79;100.00;101507.44;4998124;28;19947;-80
2023/08/13 02:58:23;;;;;;;;;;;;;;;15.77;100.00;101510.19;4973654;28;19976;-81
2023/08/13 03:01:12;;;;;;;;;;;;;;;15.77;100.00;101503.97;4982050;28;21948;-80
2023/08/13 03:04:00;;;;;;;;;;;;;;;15.78;100.00;101495.88;5001467;28;20466;-81
2023/08/13 03:06:46;;;;;;;;;;;;;;;15.81;100.00;101498.38;4998954;28;20031;-80
2023/08/13 03:09:31;;;;;;;;;;;;;;;15.84;100.00;101494.66;4971920;28;19928;-80
2023/08/13 03:12:20;;;;;;;;;;;;;;;15.88;100.00;101494.41;4977464;28;19925;-79
2023/08/13 03:15:06;;;;;;;;;;;;;;;15.95;100.00;101488.75;5002326;28;20016;-79
2023/08/13 03:17:52;;;;;;;;;;;;;;;16.01;100.00;101491.03;4997899;28;21983;-80
2023/08/13 03:20:37;;;;;;;;;;;;;;;16.06;100.00;101488.97;4984057;28;20021;-80
2023/08/13 03:23:23;;;;;;;;;;;;;;;16.13;100.00;101495.66;5001229;28;19949;-80
2023/08/13 03:26:08;;;;;;;;;;;;;;;16.19;100.00;101498.94;5000423;28;19929;-79
2023/08/13 03:28:54;;;;;;;;;;;;;;;16.23;100.00;101493.31;5001688;28;19926;-79
2023/08/13 03:31:40;;;;;;;;;;;;;;;16.26;100.00;101494.94;5000457;28;19909;-80
2023/08/13 03:34:25;;;;;;;;;;;;;;;16.30;100.00;101491.16;4992305;28;19936;-80
2023/08/13 03:37:11;;;;;;;;;;;;;;;16.34;100.00;101486.47;4999582;28;20466;-78
2023/08/13 03:39:59;;;;;;;;;;;;;;;16.36;100.00;101501.47;5002110;28;19929;-80
2023/08/13 03:42:45;;;;;;;;;;;;;;;16.37;100.00;101495.19;5003479;28;19932;-80
2023/08/13 03:45:31;;;;;;;;;;;;;;;16.39;100.00;101487.91;4985364;28;19959;-79
2023/08/13 03:48:27;;;;;;;;;;;;;;;16.42;100.00;101490.44;4975530;28;19940;-81
2023/08/13 05:18:10;;;;;;;;;;;;;;;16.84;100.00;101511.94;5278320;22;20013;-79
2023/08/13 05:20:55;;;;;;;;;;;;;;;16.85;100.00;101507.47;4984073;28;19984;-79
2023/08/13 05:23:41;;;;;;;;;;;;;;;16.87;100.00;101518.03;4982065;28;19946;-79
2023/08/13 05:26:29;;;;;;;;;;;;;;;16.86;100.00;101509.19;4985790;28;19931;-80
2023/08/13 05:29:17;;;;;;;;;;;;;;;16.87;100.00;101510.91;4985648;28;19918;-80
2023/08/13 05:32:04;;;;;;;;;;;;;;;16.86;100.00;101514.53;4985880;28;19926;-80
2023/08/13 05:34:50;;;;;;;;;;;;;;;16.86;100.00;101522.56;4972250;28;19992;-80
2023/08/13 05:37:36;;;;;;;;;;;;;;;16.84;100.00;101522.63;4985350;28;19922;-79
2023/08/13 05:40:23;;;;;;;;;;;;;;;16.84;100.00;101517.28;4986359;28;20553;-79
2023/08/13 05:43:14;;;;;;;;;;;;;;;16.84;100.00;101516.44;4971413;28;19960;-79
2023/08/13 05:46:03;;;;;;;;;;;;;;;16.83;100.00;101522.72;4982501;28;19930;-80
2023/08/13 05:49:12;;;;;;;;;;;;;;;16.82;100.00;101518.34;4986201;28;19948;-82
2023/08/13 05:51:57;;;;;;;;;;;;;;;16.82;100.00;101518.34;4988154;28;19925;-80
2023/08/13 05:54:43;;;;;;;;;;;;;;;16.84;100.00;101513.78;4978346;28;20463;-81
2023/08/13 05:57:29;;;;;;;;;;;;;;;16.91;100.00;101517.78;4976604;28;20539;-79
2023/08/13 06:00:18;;;;;;;;;;;;;;;17.00;100.00;101510.97;4987963;28;19926;-80
2023/08/13 06:03:03;;;;;;;;;;;;;;;17.10;100.00;101517.53;4980448;28;19994;-79
2023/08/13 06:05:52;;;;;;;;;;;;;;;17.16;100.00;101516.28;4978911;28;19933;-79
2023/08/13 06:08:40;;;;;;;;;;;;;;;17.21;100.00;101519.53;4961498;28;19934;-79
2023/08/13 06:11:26;;;;;;;;;;;;;;;17.27;100.00;101520.09;4966702;28;19922;-79
2023/08/13 06:14:11;;;;;;;;;;;;;;;17.30;100.00;101527.91;4960392;28;20010;-79
2023/08/13 06:16:57;;;;;;;;;;;;;;;17.33;100.00;101527.75;4953499;28;20358;-80
2023/08/13 06:19:43;;;;;;;;;;;;;;;17.35;100.00;101531.16;4967681;28;19926;-80
2023/08/13 06:22:31;;;;;;;;;;;;;;;17.35;100.00;101534.72;4963834;28;19985;-78
2023/08/13 06:25:16;;;;;;;;;;;;;;;17.34;100.00;101534.81;4959758;28;20626;-79
2023/08/13 06:28:02;;;;;;;;;;;;;;;17.35;100.00;101532.03;4969309;28;19930;-79
2023/08/13 06:30:48;;;;;;;;;;;;;;;17.35;100.00;101540.06;4965390;28;19925;-80
2023/08/13 06:33:33;;;;;;;;;;;;;;;17.37;100.00;101534.59;4969071;28;19942;-78
2023/08/13 06:36:19;;;;;;;;;;;;;;;17.38;100.00;101541.69;4964080;28;20385;-78
2023/08/13 06:39:05;;;;;;;;;;;;;;;17.42;100.00;101537.84;4968343;28;20021;-79
2023/08/13 06:41:53;;;;;;;;;;;;;;;17.44;100.00;101551.97;4965710;28;20483;-79
2023/08/13 06:44:38;;;;;;;;;;;;;;;17.44;100.00;101546.63;4966346;28;19930;-78
2023/08/13 06:47:24;;;;;;;;;;;;;;;17.46;100.00;101552.75;4970776;28;19961;-79
2023/08/13 06:50:10;;;;;;;;;;;;;;;17.49;100.00;101546.38;4953766;28;20003;-80
2023/08/13 06:52:55;;;;;;;;;;;;;;;17.52;100.00;101548.84;4966005;28;19933;-80
2023/08/13 06:55:41;;;;;;;;;;;;;;;17.55;100.00;101547.78;4978522;28;20136;-79
2023/08/13 06:58:27;;;;;;;;;;;;;;;17.58;100.00;101547.56;4963866;28;19922;-79
2023/08/13 07:01:13;;;;;;;;;;;;;;;17.61;100.00;101550.06;4966549;28;19926;-79
2023/08/13 07:03:58;;;;;;;;;;;;;;;17.67;100.00;101547.00;4967123;28;19993;-79
2023/08/13 07:06:44;;;;;;;;;;;;;;;17.82;100.00;101545.13;4964889;28;19921;-79
2023/08/13 07:09:32;;;;;;;;;;;;;;;17.96;100.00;101546.91;4969246;28;19914;-80
2023/08/13 07:12:18;;;;;;;;;;;;;;;18.04;100.00;101549.94;4966642;28;20551;-79
2023/08/13 07:15:04;;;;;;;;;;;;;;;18.13;100.00;101548.50;4966754;28;20052;-80
2023/08/13 07:17:50;;;;;;;;;;;;;;;18.19;100.00;101547.22;4967413;28;20249;-80
2023/08/13 07:20:36;;;;;;;;;;;;;;;18.23;100.00;101553.22;4972898;28;19921;-80
2023/08/13 07:23:21;;;;;;;;;;;;;;;18.24;100.00;101549.63;4967185;28;19961;-80
2023/08/13 07:26:10;;;;;;;;;;;;;;;18.24;100.00;101552.28;4963446;28;19921;-80
2023/08/13 07:28:56;;;;;;;;;;;;;;;18.25;100.00;101548.66;4966335;28;19933;-80
2023/08/13 07:31:41;;;;;;;;;;;;;;;18.28;100.00;101564.50;4967620;28;19977;-79
2023/08/13 07:34:27;;;;;;;;;;;;;;;18.29;100.00;101552.81;4969832;28;19922;-79
2023/08/13 07:37:13;;;;;;;;;;;;;;;18.27;100.00;101561.00;4969960;28;19929;-80
2023/08/13 07:39:58;;;;;;;;;;;;;;;18.25;100.00;101568.25;4973847;28;19930;-80
2023/08/13 07:42:44;;;;;;;;;;;;;;;18.30;100.00;101566.13;4951241;28;19926;-80
2023/08/13 07:45:30;;;;;;;;;;;;;;;18.40;100.00;101569.06;4971083;28;19922;-80
2023/08/13 07:48:16;;;;;;;;;;;;;;;18.51;100.00;101568.31;4964465;28;19930;-80
2023/08/13 07:51:02;;;;;;;;;;;;;;;18.68;100.00;101567.16;4974949;28;20014;-79
2023/08/13 07:53:51;;;;;;;;;;;;;;;18.92;100.00;101565.59;4989779;28;19918;-79
2023/08/13 07:56:37;;;;;;;;;;;;;;;19.02;100.00;101560.44;4981054;28;19926;-80
2023/08/13 07:59:25;;;;;;;;;;;;;;;19.14;100.00;101563.13;4974095;28;19965;-80
2023/08/13 08:02:11;;;;;;;;;;;;;;;19.23;100.00;101558.09;4968744;28;19929;-81
2023/08/13 08:05:00;;;;;;;;;;;;;;;19.29;100.00;101551.44;4982153;28;19929;-80
2023/08/13 08:07:46;;;;;;;;;;;;;;;19.34;100.00;101560.84;4986334;28;19933;-81
2023/08/13 08:10:32;;;;;;;;;;;;;;;19.48;100.00;101559.00;4977548;28;19929;-80
2023/08/13 08:16:40;;;;;;;;;;;;;;;19.77;100.00;101548.81;4961611;28;19974;-81
2023/08/13 08:19:26;;;;;;;;;;;;;;;19.95;100.00;101549.31;4934088;29;20391;-80
2023/08/13 08:22:12;;;;;;;;;;;;;;;19.97;100.00;101551.03;4920815;29;20418;-80
2023/08/13 08:24:57;;;;;;;;;;;;;;;19.90;100.00;101548.78;4937252;29;19926;-80
2023/08/13 08:27:43;;;;;;;;;;;;;;;19.90;100.00;101551.47;4912546;29;20463;-81
2023/08/13 08:30:29;;;;;;;;;;;;;;;19.88;100.00;101547.19;4922684;29;19923;-80
2023/08/13 08:33:27;;;;;;;;;;;;;;;19.95;100.00;101553.84;4929405;29;20588;-79
2023/08/13 08:36:13;;;;;;;;;;;;;;;20.11;100.00;101558.06;4935475;29;19953;-81
2023/08/13 08:38:58;;;;;;;;;;;;;;;20.27;100.00;101558.63;4929689;29;20350;-81
2023/08/13 08:41:46;;;;;;;;;;;;;;;20.42;100.00;101548.53;4933406;29;21299;-81
2023/08/13 08:44:32;;;;;;;;;;;;;;;20.60;100.00;101553.50;4943824;28;19994;-80
2023/08/13 08:47:17;;;;;;;;;;;;;;;20.62;100.00;101557.78;4932482;28;20630;-81
2023/08/13 08:50:04;;;;;;;;;;;;;;;20.70;100.00;101557.16;4933615;29;19964;-81
2023/08/13 08:52:55;;;;;;;;;;;;;;;20.79;100.00;101557.41;4947801;28;19929;-82
2023/08/13 08:55:51;;;;;;;;;;;;;;;20.76;100.00;101551.31;4949043;28;20013;-80
2023/08/13 08:58:37;;;;;;;;;;;;;;;20.68;100.00;101545.69;4951276;29;19937;-81
2023/08/13 09:01:22;;;;;;;;;;;;;;;20.70;100.00;101540.19;4949374;29;19930;-82
2023/08/13 09:04:08;;;;;;;;;;;;;;;20.77;100.00;101536.88;4935291;29;19929;-81
2023/08/13 09:06:54;;;;;;;;;;;;;;;20.90;100.00;101544.03;4940542;29;19927;-80
2023/08/13 09:09:44;;;;;;;;;;;;;;;20.97;100.00;101545.25;4931921;29;19961;-82
2023/08/13 09:12:36;;;;;;;;;;;;;;;21.21;100.00;101547.00;4924967;29;19930;-79
2023/08/13 09:15:22;;;;;;;;;;;;;;;21.42;100.00;101557.00;4923091;29;19937;-80
2023/08/13 09:18:08;;;;;;;;;;;;;;;21.52;100.00;101560.66;4955440;28;20373;-81
2023/08/13 09:20:55;;;;;;;;;;;;;;;21.46;100.00;101563.84;4962582;28;19922;-80
2023/08/13 09:23:43;;;;;;;;;;;;;;;21.33;100.00;101555.91;4961233;28;19961;-81
2023/08/13 09:26:29;;;;;;;;;;;;;;;21.26;100.00;101550.19;4967300;28;19940;-79
2023/08/13 09:29:17;;;;;;;;;;;;;;;21.18;100.00;101547.22;4967682;28;20917;-81
2023/08/13 09:32:03;;;;;;;;;;;;;;;21.26;100.00;101550.19;4970674;28;19989;-80
2023/08/13 09:34:52;;;;;;;;;;;;;;;21.30;100.00;101540.00;4968116;28;19933;-80
2023/08/13 09:37:38;;;;;;;;;;;;;;;21.29;100.00;101538.28;4968885;28;19930;-80
2023/08/13 09:40:24;;;;;;;;;;;;;;;21.34;100.00;101543.31;4968341;28;19925;-79
2023/08/13 09:43:12;;;;;;;;;;;;;;;21.38;100.00;101540.25;4973198;28;19998;-79
2023/08/13 09:45:58;;;;;;;;;;;;;;;21.37;100.00;101543.94;4968079;28;20021;-81
2023/08/13 09:48:44;;;;;;;;;;;;;;;21.37;100.00;101534.97;4955474;28;19980;-81
2023/08/13 09:51:31;;;;;;;;;;;;;;;21.47;100.00;101541.34;4966136;28;20012;-81
2023/08/13 09:54:40;;;;;;;;;;;;;;;21.47;100.00;101544.03;4970170;28;19922;-80
2023/08/13 09:57:26;;;;;;;;;;;;;;;21.36;100.00;101542.19;4939663;28;19926;-80
2023/08/13 10:00:12;;;;;;;;;;;;;;;21.22;100.00;101545.13;4960146;28;19929;-80
2023/08/13 10:02:57;;;;;;;;;;;;;;;21.02;100.00;101548.44;4949787;28;20000;-80
2023/08/13 10:05:43;;;;;;;;;;;;;;;20.86;100.00;101539.88;4965758;28;19928;-79
2023/08/13 10:08:29;;;;;;;;;;;;;;;20.78;100.00;101535.06;4965311;28;19951;-79
2023/08/13 10:11:14;;;;;;;;;;;;;;;20.71;100.00;101523.91;4963963;28;19931;-79
2023/08/13 10:14:00;;;;;;;;;;;;;;;20.64;100.00;101538.81;4964751;28;20033;-80
2023/08/13 10:16:46;;;;;;;;;;;;;;;20.61;100.00;101536.38;4969835;28;20773;-79
2023/08/13 10:19:32;;;;;;;;;;;;;;;20.63;100.00;101543.34;4977318;28;20424;-79
2023/08/13 10:22:32;;;;;;;;;;;;;;;20.77;100.00;101542.25;4962309;28;19929;-80
2023/08/13 10:25:35;;;;;;;;;;;;;;;20.92;100.00;101536.69;4952135;28;20354;-79
2023/08/13 10:28:27;;;;;;;;;;;;;;;21.11;100.00;101538.78;4962642;28;19930;-78
2023/08/13 10:31:19;;;;;;;;;;;;;;;21.22;100.00;101543.31;4963663;28;19933;-79
2023/08/13 10:34:10;;;;;;;;;;;;;;;21.33;100.00;101533.50;4962114;28;19922;-79
2023/08/13 10:36:58;;;;;;;;;;;;;;;21.41;100.00;101541.84;4975142;28;20945;-79
2023/08/13 10:39:45;;;;;;;;;;;;;;;21.49;100.00;101527.72;4954990;28;19925;-79
2023/08/13 10:42:36;;;;;;;;;;;;;;;21.62;100.00;101533.00;4961925;28;19995;-80
2023/08/13 10:45:35;;;;;;;;;;;;;;;21.61;100.00;101533.97;4965524;28;19928;-81
2023/08/13 10:48:27;;;;;;;;;;;;;;;21.54;100.00;101537.16;4961965;28;19973;-81
2023/08/13 10:51:13;;;;;;;;;;;;;;;21.39;100.00;101527.63;4964335;28;20093;-79
2023/08/13 10:53:59;;;;;;;;;;;;;;;21.21;100.00;101530.84;4967792;28;20002;-79
2023/08/13 10:56:52;;;;;;;;;;;;;;;21.13;100.00;101530.59;4972585;28;19926;-79
2023/08/13 10:59:38;;;;;;;;;;;;;;;21.03;100.00;101534.00;4964912;28;19934;-79
2023/08/13 11:02:28;;;;;;;;;;;;;;;20.89;100.00;101532.41;4973100;28;19932;-79
2023/08/13 11:05:13;;;;;;;;;;;;;;;20.81;100.00;101531.28;4962255;28;20441;-79
2023/08/13 11:07:59;;;;;;;;;;;;;;;20.72;100.00;101535.53;4970029;28;20041;-80
2023/08/13 11:10:46;;;;;;;;;;;;;;;20.62;100.00;101530.00;4958005;28;19926;-79
2023/08/13 11:13:31;;;;;;;;;;;;;;;20.45;100.00;101540.25;4964391;28;20412;-81
2023/08/13 11:16:17;;;;;;;;;;;;;;;20.27;100.00;101550.56;4965322;28;20298;-78
2023/08/13 11:19:06;;;;;;;;;;;;;;;20.13;100.00;101540.88;4962296;28;20657;-81
2023/08/13 11:21:57;;;;;;;;;;;;;;;19.98;100.00;101542.03;4972911;28;19953;-81
2023/08/13 11:24:51;;;;;;;;;;;;;;;19.80;100.00;101542.38;4960560;28;21165;-79
2023/08/13 11:27:37;;;;;;;;;;;;;;;19.65;100.00;101547.91;4973040;28;19936;-80
2023/08/13 11:30:23;;;;;;;;;;;;;;;19.61;100.00;101545.56;4960715;28;19926;-79
2023/08/13 11:33:09;;;;;;;;;;;;;;;19.72;100.00;101539.41;4960872;28;19925;-79
2023/08/13 11:35:55;;;;;;;;;;;;;;;19.93;100.00;101537.81;4955414;28;19926;-78
2023/08/13 11:38:41;;;;;;;;;;;;;;;20.09;100.00;101544.75;4974023;28;20058;-79
2023/08/13 11:41:27;;;;;;;;;;;;;;;20.20;100.00;101539.44;4961608;28;19941;-79
2023/08/13 11:44:12;;;;;;;;;;;;;;;20.32;100.00;101539.47;4961175;28;20345;-78
2023/08/13 11:47:00;;;;;;;;;;;;;;;20.49;100.00;101538.19;4959765;28;21387;-80
2023/08/13 11:49:46;;;;;;;;;;;;;;;20.67;100.00;101540.41;4963882;28;19937;-79
2023/08/13 11:52:32;;;;;;;;;;;;;;;20.81;100.00;101528.59;4960280;28;19973;-80
2023/08/13 11:55:17;;;;;;;;;;;;;;;20.89;100.00;101535.13;4960908;28;20001;-80
2023/08/13 11:58:04;;;;;;;;;;;;;;;20.96;100.00;101532.78;4960438;28;19930;-80
2023/08/13 12:00:50;;;;;;;;;;;;;;;20.99;100.00;101532.56;4961582;28;19957;-79
2023/08/13 12:03:36;;;;;;;;;;;;;;;21.01;100.00;101537.78;4963779;28;19981;-78
2023/08/13 12:06:22;;;;;;;;;;;;;;;21.10;100.00;101538.91;4958029;28;19992;-79
2023/08/13 12:09:07;;;;;;;;;;;;;;;21.27;100.00;101534.84;4959137;28;19933;-80
2023/08/13 12:11:53;;;;;;;;;;;;;;;21.49;100.00;101534.00;4960020;28;19992;-79
2023/08/13 12:14:43;;;;;;;;;;;;;;;21.61;100.00;101532.13;4973385;28;20378;-79
2023/08/13 12:17:31;;;;;;;;;;;;;;;21.69;100.00;101537.75;4960331;28;19930;-78
2023/08/13 12:20:16;;;;;;;;;;;;;;;21.78;100.00;101532.63;4961548;28;19921;-79
2023/08/13 12:23:02;;;;;;;;;;;;;;;21.81;100.00;101532.34;4959190;28;19925;-79
2023/08/13 12:25:48;;;;;;;;;;;;;;;22.01;100.00;101521.75;4960186;28;19949;-79
2023/08/13 12:28:33;;;;;;;;;;;;;;;22.21;100.00;101528.16;4960755;28;19926;-80
2023/08/13 12:31:19;;;;;;;;;;;;;;;22.27;100.00;101526.78;4960844;28;20415;-78
2023/08/13 12:34:05;;;;;;;;;;;;;;;22.30;100.00;101530.09;4958712;28;20020;-79
2023/08/13 12:36:51;;;;;;;;;;;;;;;22.33;100.00;101526.28;4959451;28;19956;-78
2023/08/13 12:39:36;;;;;;;;;;;;;;;22.26;100.00;101531.31;4956485;28;19952;-78
2023/08/13 12:42:22;;;;;;;;;;;;;;;22.37;100.00;101533.97;4959242;28;20052;-78
2023/08/13 12:45:08;;;;;;;;;;;;;;;22.56;100.00;101529.72;4959294;28;19982;-79
2023/08/13 12:47:59;;;;;;;;;;;;;;;22.79;100.00;101525.00;4961125;28;19926;-78
2023/08/13 12:50:44;;;;;;;;;;;;;;;22.89;100.00;101533.16;4971214;28;19924;-78
2023/08/13 12:53:30;;;;;;;;;;;;;;;22.81;100.00;101541.06;4963816;28;20005;-79
2023/08/13 12:56:16;;;;;;;;;;;;;;;22.77;100.00;101529.69;4959331;28;21816;-79
2023/08/13 12:59:01;;;;;;;;;;;;;;;22.68;100.00;101540.44;4960807;28;20079;-79
2023/08/13 13:01:47;;;;;;;;;;;;;;;22.63;100.00;101538.13;4960023;28;19922;-80
2023/08/13 13:04:33;;;;;;;;;;;;;;;22.58;100.00;101538.53;4972027;28;19930;-78
2023/08/13 13:07:18;;;;;;;;;;;;;;;22.63;100.00;101543.53;4956476;28;19922;-79
2023/08/13 13:10:04;;;;;;;;;;;;;;;22.82;100.00;101542.78;4957520;28;20340;-81
2023/08/13 13:12:50;;;;;;;;;;;;;;;23.00;100.00;101529.53;4961340;28;20441;-79
2023/08/13 13:15:36;;;;;;;;;;;;;;;23.13;100.00;101532.00;4960410;28;20020;-79
2023/08/13 13:18:21;;;;;;;;;;;;;;;23.13;100.00;101532.00;4962224;28;20390;-77
2023/08/13 13:21:07;;;;;;;;;;;;;;;23.04;100.00;101530.13;4959124;28;19929;-78
2023/08/13 13:23:52;;;;;;;;;;;;;;;22.94;100.00;101543.56;4959495;28;20009;-78
2023/08/13 13:26:38;;;;;;;;;;;;;;;22.79;100.00;101543.06;4958748;28;19933;-79
2023/08/13 13:29:24;;;;;;;;;;;;;;;22.65;100.00;101537.03;4970023;28;19929;-78
2023/08/13 13:32:09;;;;;;;;;;;;;;;22.56;100.00;101537.81;4958409;28;20008;-77
2023/08/13 13:34:55;;;;;;;;;;;;;;;22.51;100.00;101550.84;4957359;28;19932;-78
2023/08/13 13:37:41;;;;;;;;;;;;;;;22.52;100.00;101539.06;4959136;28;19929;-77
2023/08/13 13:40:26;;;;;;;;;;;;;;;22.53;100.00;101529.97;4958433;28;19925;-79
2023/08/13 13:43:12;;;;;;;;;;;;;;;22.55;100.00;101529.84;4969787;28;19956;-79
2023/08/13 13:45:58;;;;;;;;;;;;;;;22.58;100.00;101530.44;4962657;28;19926;-78
2023/08/13 13:48:43;;;;;;;;;;;;;;;22.60;100.00;101527.63;4955391;28;19926;-79
2023/08/13 13:51:29;;;;;;;;;;;;;;;22.57;100.00;101523.34;4956296;28;19922;-79
2023/08/13 13:54:15;;;;;;;;;;;;;;;22.58;100.00;101525.03;4970208;28;19969;-78
2023/08/13 13:57:03;;;;;;;;;;;;;;;22.57;100.00;101523.34;4970559;28;21515;-78
2023/08/13 13:59:49;;;;;;;;;;;;;;;22.55;100.00;101519.91;4969148;28;20005;-77
2023/08/13 14:02:35;;;;;;;;;;;;;;;22.51;100.00;101522.00;4958698;28;19932;-77
2023/08/13 14:05:23;;;;;;;;;;;;;;;22.52;100.00;101523.75;4970353;28;20040;-78
2023/08/13 14:08:11;;;;;;;;;;;;;;;22.55;100.00;101524.47;4958886;28;19976;-78
2023/08/13 14:10:57;;;;;;;;;;;;;;;22.55;100.00;101517.19;4956636;28;19961;-79
2023/08/13 14:13:43;;;;;;;;;;;;;;;22.59;100.00;101521.34;4957695;28;19930;-79
2023/08/13 14:16:28;;;;;;;;;;;;;;;22.63;100.00;101519.25;4961215;28;20025;-78
2023/08/13 14:19:20;;;;;;;;;;;;;;;22.67;100.00;101526.09;4956463;28;19930;-79
2023/08/13 14:22:17;;;;;;;;;;;;;;;22.61;100.00;101518.53;4957694;28;20420;-79
2023/08/13 14:25:03;;;;;;;;;;;;;;;22.53;100.00;101516.50;4955796;28;20024;-79
2023/08/13 14:27:49;;;;;;;;;;;;;;;22.54;100.00;101523.59;4958002;28;19929;-78
2023/08/13 14:30:34;;;;;;;;;;;;;;;22.55;100.00;101530.69;4957566;28;19953;-78
2023/08/13 14:33:20;;;;;;;;;;;;;;;22.56;100.00;101521.63;4959327;28;20353;-77
2023/08/13 14:36:06;;;;;;;;;;;;;;;22.61;100.00;101519.38;4968677;28;19925;-78
2023/08/13 14:38:52;;;;;;;;;;;;;;;22.57;100.00;101522.47;4957807;28;20005;-79
2023/08/13 14:41:37;;;;;;;;;;;;;;;22.47;100.00;101520.53;4958393;28;19933;-79
2023/08/13 14:44:26;;;;;;;;;;;;;;;22.32;100.00;101521.84;4958183;28;19940;-79
2023/08/13 14:47:12;;;;;;;;;;;;;;;22.21;100.00;101511.97;4955892;28;19926;-79
2023/08/13 14:50:01;;;;;;;;;;;;;;;22.09;100.00;101525.53;4958477;28;20012;-80
2023/08/13 14:52:46;;;;;;;;;;;;;;;22.03;100.00;101509.84;4956448;28;20029;-79
2023/08/13 14:55:32;;;;;;;;;;;;;;;21.97;100.00;101521.16;4955634;28;19922;-79
2023/08/13 14:58:17;;;;;;;;;;;;;;;21.84;100.00;101522.16;4956967;28;19929;-79
2023/08/13 15:01:03;;;;;;;;;;;;;;;21.74;100.00;101526.63;4957420;28;20191;-80
2023/08/13 15:03:49;;;;;;;;;;;;;;;21.66;100.00;101524.53;4958628;28;20037;-79
2023/08/13 15:06:34;;;;;;;;;;;;;;;21.54;100.00;101530.91;4949519;28;20293;-78
2023/08/13 15:09:20;;;;;;;;;;;;;;;21.41;100.00;101525.69;4957024;28;20041;-78
2023/08/13 15:12:06;;;;;;;;;;;;;;;21.28;100.00;101526.66;4966959;28;19926;-80
2023/08/13 15:14:51;;;;;;;;;;;;;;;21.16;100.00;101528.50;4945302;28;19925;-77
2023/08/13 15:17:40;;;;;;;;;;;;;;;21.00;100.00;101528.88;4956594;28;19930;-79
2023/08/13 15:20:26;;;;;;;;;;;;;;;20.90;100.00;101527.88;4948949;28;19931;-80
2023/08/13 15:23:11;;;;;;;;;;;;;;;20.85;100.00;101524.69;4938126;28;19977;-79
2023/08/13 15:26:00;;;;;;;;;;;;;;;20.81;100.00;101517.81;4938377;28;19937;-79
2023/08/13 15:28:46;;;;;;;;;;;;;;;20.77;100.00;101518.03;4918197;28;19922;-80
2023/08/13 15:31:32;;;;;;;;;;;;;;;20.77;100.00;101519.91;4939728;28;19923;-79
2023/08/13 15:34:21;;;;;;;;;;;;;;;20.77;100.00;101518.03;4951728;28;20609;-79
2023/08/13 15:37:07;;;;;;;;;;;;;;;20.75;100.00;101521.81;4935550;28;20353;-80
2023/08/13 15:39:52;;;;;;;;;;;;;;;20.70;100.00;101518.66;4916010;28;20010;-78
2023/08/13 15:42:38;;;;;;;;;;;;;;;20.63;100.00;101520.97;4924811;28;19934;-79
2023/08/13 15:45:24;;;;;;;;;;;;;;;20.58;100.00;101515.94;4937430;28;20022;-80
2023/08/13 15:48:10;;;;;;;;;;;;;;;20.59;100.00;101511.44;4934516;28;19930;-79
2023/08/13 15:50:55;;;;;;;;;;;;;;;20.59;100.00;101512.28;4939274;28;19926;-79
2023/08/13 15:53:41;;;;;;;;;;;;;;;20.55;100.00;101528.78;4922486;28;20507;-80
2023/08/13 15:56:27;;;;;;;;;;;;;;;20.49;100.00;101517.50;4936193;28;19990;-79
2023/08/13 15:59:13;;;;;;;;;;;;;;;20.42;100.00;101524.34;4925905;28;20390;-80
2023/08/13 16:01:59;;;;;;;;;;;;;;;20.34;100.00;101526.75;4951176;28;19985;-78
2023/08/13 16:04:44;;;;;;;;;;;;;;;20.25;100.00;101522.09;4939761;28;19936;-79
2023/08/13 16:07:30;;;;;;;;;;;;;;;20.15;100.00;101521.94;4938652;28;19926;-79
2023/08/13 16:10:16;;;;;;;;;;;;;;;20.06;100.00;101523.50;4938517;28;19919;-80
2023/08/13 16:13:03;;;;;;;;;;;;;;;19.95;100.00;101517.06;4941983;28;19931;-79
2023/08/13 16:16:13;;;;;;;;;;;;;;;19.84;100.00;101513.44;4932580;28;19926;-80
2023/08/13 16:18:58;;;;;;;;;;;;;;;19.73;100.00;101514.25;4958819;28;19926;-78
2023/08/13 16:21:44;;;;;;;;;;;;;;;19.64;100.00;101513.97;4958002;28;19961;-79
2023/08/13 16:24:30;;;;;;;;;;;;;;;19.62;100.00;101504.31;4970979;28;20020;-80
2023/08/13 16:27:15;;;;;;;;;;;;;;;19.65;100.00;101502.25;4959316;28;19926;-78
2023/08/13 16:30:05;;;;;;;;;;;;;;;19.67;100.00;101502.16;4951941;28;20598;-79
2023/08/13 16:32:50;;;;;;;;;;;;;;;19.72;100.00;101507.16;4936533;28;19926;-79
2023/08/13 16:35:36;;;;;;;;;;;;;;;19.77;100.00;101513.06;4973019;28;19934;-79
2023/08/13 16:38:22;;;;;;;;;;;;;;;19.80;100.00;101507.44;4957063;28;19921;-79
2023/08/13 16:41:07;;;;;;;;;;;;;;;19.84;100.00;101514.31;4957252;28;19918;-79
2023/08/13 16:43:53;;;;;;;;;;;;;;;19.87;100.00;101514.09;4970709;28;21866;-79
2023/08/13 16:46:38;;;;;;;;;;;;;;;19.96;100.00;101517.94;4969165;28;20360;-80
2023/08/13 16:49:25;;;;;;;;;;;;;;;20.09;100.00;101515.19;4958191;28;20309;-79
2023/08/13 16:52:10;;;;;;;;;;;;;;;20.24;100.00;101510.47;4957104;28;19960;-79
2023/08/13 16:54:56;;;;;;;;;;;;;;;20.35;100.00;101501.59;4960086;28;19926;-79
2023/08/13 16:57:42;;;;;;;;;;;;;;;20.47;100.00;101505.16;4957172;28;20404;-79
2023/08/13 17:00:28;;;;;;;;;;;;;;;20.57;100.00;101492.72;4955053;28;19933;-79
2023/08/13 17:03:13;;;;;;;;;;;;;;;20.68;100.00;101497.25;4959978;28;19926;-79
2023/08/13 17:06:00;;;;;;;;;;;;;;;20.80;100.00;101497.28;4958265;28;19929;-79
2023/08/13 17:08:46;;;;;;;;;;;;;;;20.88;100.00;101494.88;4970593;28;20314;-80
2023/08/13 17:11:32;;;;;;;;;;;;;;;20.88;100.00;101498.41;4958695;28;19925;-80
2023/08/13 17:14:17;;;;;;;;;;;;;;;20.83;100.00;101499.72;4969226;28;19973;-79